Riverton, WY (82501)

9:22 PM MDT on August 27, 2016 (GMT -0600)
| | Change Station

Elev -9999 ft 0.00 °N, 0.00 °E | Updated

Clear
Clear
60 °F
Feels Like 60 °F
N
10
Wind Variable Wind from West
Gusts 14 mph

Today
High -- | Low -- °F
--% Chance of Precip.
Yesterday
High -- | Low -- °F
Precip. -- in
Pressure 29.85 in
Visibility 10.0 miles
Clouds Clear
Dew Point 30 °F
Humidity 32%
Rainfall --
Snow Depth Not available.
6:33 AM 7:56 PM
Waning Crescent, 19% visible
METAR KRIW 280253Z AUTO 12003KT 10SM CLR 22/M03 A3002 RMK AO2 SLP106 T02221028 53007
Pressure 29.85 in
Visibility 10.0 miles
Clouds Clear
Dew Point 30 °F
Humidity 32%
Rainfall --
Snow Depth Not available.
6:33 AM 7:56 PM
Waning Crescent, 19% visible
METAR KRIW 280253Z AUTO 12003KT 10SM CLR 22/M03 A3002 RMK AO2 SLP106 T02221028 53007

10-Day Weather Forecast

Almanac

Astronomy

Aug. 27, 2016 Rise Set
Actual Time
Civil Twilight
Nautical Twilight
Astronomical Twilight
Moon
Length of Visible Light
Length of Day
Tomorrow will be .
, % of the Moon is Illuminated

Today's Extremes

State Highs State Lows

Community

WunderPhotos

Upload Photos

1,935,514 photos uploaded!

WunderBlog® & News

Nearby

Air Quality

  Air Quality AQ Index Pollutant
Not available.

Snow Depth

Station Depth Elevation

Earthquake Activity

City Distance Mag. Time & Date
Minimum magnitude displayed is 2.5.

Coastal Water Temperatures

Place Temperature

Stations

Nearby Weather Stations

Station Location Temp. Windchill Dew Point Humidity Wind Precip. Elev Updated Type
                   

Watches & Warnings

There are currently no watches in effect.